sensor_id;sensor_type;location;lat;lon;timestamp;pressure;altitude;pressure_sealevel;temperature;humidity
55604;BME280;41468;48.838;9.330;2023-01-27T00:00:34;98585.03;;;0.41;92.86
55604;BME280;41468;48.838;9.330;2023-01-27T00:03:01;98587.31;;;0.48;92.69
55604;BME280;41468;48.838;9.330;2023-01-27T00:05:28;98578.28;;;0.43;92.66
55604;BME280;41468;48.838;9.330;2023-01-27T00:07:55;98584.63;;;0.48;92.81
55604;BME280;41468;48.838;9.330;2023-01-27T00:10:25;98587.25;;;0.53;93.13
55604;BME280;41468;48.838;9.330;2023-01-27T00:12:51;98581.28;;;0.56;92.18
55604;BME280;41468;48.838;9.330;2023-01-27T00:15:37;98574.19;;;0.46;92.90
55604;BME280;41468;48.838;9.330;2023-01-27T00:18:06;98581.66;;;0.49;92.58
55604;BME280;41468;48.838;9.330;2023-01-27T00:20:33;98576.50;;;0.53;92.98
55604;BME280;41468;48.838;9.330;2023-01-27T00:23:20;98578.34;;;0.38;93.49
55604;BME280;41468;48.838;9.330;2023-01-27T00:26:10;98580.97;;;0.43;93.00
55604;BME280;41468;48.838;9.330;2023-01-27T00:28:38;98579.03;;;0.30;93.81
55604;BME280;41468;48.838;9.330;2023-01-27T00:31:07;98572.94;;;0.25;93.96
55604;BME280;41468;48.838;9.330;2023-01-27T00:33:53;98571.31;;;0.24;94.09
55604;BME280;41468;48.838;9.330;2023-01-27T00:36:21;98572.84;;;0.30;93.93
55604;BME280;41468;48.838;9.330;2023-01-27T00:38:48;98575.31;;;0.26;94.26
55604;BME280;41468;48.838;9.330;2023-01-27T00:41:14;98570.38;;;0.33;94.11
55604;BME280;41468;48.838;9.330;2023-01-27T00:43:49;98578.50;;;0.28;94.26
55604;BME280;41468;48.838;9.330;2023-01-27T00:46:18;98579.16;;;0.39;93.60
55604;BME280;41468;48.838;9.330;2023-01-27T00:48:57;98572.66;;;0.40;93.92
55604;BME280;41468;48.838;9.330;2023-01-27T00:51:23;98580.31;;;0.33;93.75
55604;BME280;41468;48.838;9.330;2023-01-27T00:53:50;98577.06;;;0.36;93.07
55604;BME280;41468;48.838;9.330;2023-01-27T00:56:17;98577.31;;;0.34;93.47
55604;BME280;41468;48.838;9.330;2023-01-27T00:58:44;98577.22;;;0.26;93.33
55604;BME280;41468;48.838;9.330;2023-01-27T01:01:13;98581.19;;;0.28;93.67
55604;BME280;41468;48.838;9.330;2023-01-27T01:03:41;98584.97;;;0.27;93.37
55604;BME280;41468;48.838;9.330;2023-01-27T01:06:10;98586.13;;;0.21;93.75
55604;BME280;41468;48.838;9.330;2023-01-27T01:08:37;98583.00;;;0.33;92.97
55604;BME280;41468;48.838;9.330;2023-01-27T01:11:11;98579.50;;;0.32;92.36
55604;BME280;41468;48.838;9.330;2023-01-27T01:13:44;98583.00;;;0.33;92.26
55604;BME280;41468;48.838;9.330;2023-01-27T01:16:19;98594.63;;;0.28;92.09
55604;BME280;41468;48.838;9.330;2023-01-27T01:18:47;98593.09;;;0.41;91.59
55604;BME280;41468;48.838;9.330;2023-01-27T01:21:14;98597.44;;;0.37;91.86
55604;BME280;41468;48.838;9.330;2023-01-27T01:23:42;98602.53;;;0.38;92.03
55604;BME280;41468;48.838;9.330;2023-01-27T01:26:10;98599.84;;;0.38;91.87
55604;BME280;41468;48.838;9.330;2023-01-27T01:28:37;98597.19;;;0.52;91.32
55604;BME280;41468;48.838;9.330;2023-01-27T01:31:09;98599.53;;;0.40;91.01
55604;BME280;41468;48.838;9.330;2023-01-27T01:33:36;98595.78;;;0.41;90.96
55604;BME280;41468;48.838;9.330;2023-01-27T01:36:11;98595.97;;;0.44;91.09
55604;BME280;41468;48.838;9.330;2023-01-27T01:38:38;98591.56;;;0.35;91.43
55604;BME280;41468;48.838;9.330;2023-01-27T01:41:07;98589.09;;;0.38;90.77
55604;BME280;41468;48.838;9.330;2023-01-27T01:43:35;98593.75;;;0.33;91.33
55604;BME280;41468;48.838;9.330;2023-01-27T01:46:02;98584.22;;;0.40;91.24
55604;BME280;41468;48.838;9.330;2023-01-27T01:48:59;98576.66;;;0.42;90.64
55604;BME280;41468;48.838;9.330;2023-01-27T01:51:38;98574.28;;;0.41;90.62
55604;BME280;41468;48.838;9.330;2023-01-27T01:54:10;98570.97;;;0.30;91.14
55604;BME280;41468;48.838;9.330;2023-01-27T01:56:38;98573.44;;;0.59;90.23
55604;BME280;41468;48.838;9.330;2023-01-27T01:59:15;98569.13;;;0.58;89.74
55604;BME280;41468;48.838;9.330;2023-01-27T02:01:43;98567.13;;;0.50;89.73
55604;BME280;41468;48.838;9.330;2023-01-27T02:04:18;98564.91;;;0.38;90.26
55604;BME280;41468;48.838;9.330;2023-01-27T02:07:02;98563.72;;;0.44;90.23
55604;BME280;41468;48.838;9.330;2023-01-27T02:09:31;98563.38;;;0.32;90.52
55604;BME280;41468;48.838;9.330;2023-01-27T02:11:59;98573.34;;;0.32;90.72
55604;BME280;41468;48.838;9.330;2023-01-27T02:14:25;98565.75;;;0.20;91.02
55604;BME280;41468;48.838;9.330;2023-01-27T02:16:52;98560.81;;;0.27;91.01
55604;BME280;41468;48.838;9.330;2023-01-27T02:22:10;98553.06;;;0.39;89.93
55604;BME280;41468;48.838;9.330;2023-01-27T02:24:43;98552.88;;;0.36;89.75
55604;BME280;41468;48.838;9.330;2023-01-27T02:27:12;98555.13;;;0.29;90.23
55604;BME280;41468;48.838;9.330;2023-01-27T02:29:39;98560.06;;;0.40;89.88
55604;BME280;41468;48.838;9.330;2023-01-27T02:32:06;98552.66;;;0.32;90.20
55604;BME280;41468;48.838;9.330;2023-01-27T02:34:34;98549.09;;;0.37;89.57
55604;BME280;41468;48.838;9.330;2023-01-27T02:37:05;98546.28;;;0.28;90.27
55604;BME280;41468;48.838;9.330;2023-01-27T02:39:37;98553.81;;;0.26;90.23
55604;BME280;41468;48.838;9.330;2023-01-27T02:42:06;98557.72;;;0.34;90.50
55604;BME280;41468;48.838;9.330;2023-01-27T02:44:33;98560.22;;;0.30;89.77
55604;BME280;41468;48.838;9.330;2023-01-27T02:47:00;98558.13;;;0.27;90.09
55604;BME280;41468;48.838;9.330;2023-01-27T02:49:26;98558.84;;;0.33;90.11
55604;BME280;41468;48.838;9.330;2023-01-27T02:51:53;98548.97;;;0.28;90.13
55604;BME280;41468;48.838;9.330;2023-01-27T02:54:20;98552.16;;;0.30;90.08
55604;BME280;41468;48.838;9.330;2023-01-27T02:56:46;98557.03;;;0.28;89.95
55604;BME280;41468;48.838;9.330;2023-01-27T02:59:13;98547.59;;;0.31;89.97
55604;BME280;41468;48.838;9.330;2023-01-27T03:01:39;98555.44;;;0.27;90.15
55604;BME280;41468;48.838;9.330;2023-01-27T03:04:06;98547.00;;;0.34;89.70
55604;BME280;41468;48.838;9.330;2023-01-27T03:06:34;98540.84;;;0.47;89.55
55604;BME280;41468;48.838;9.330;2023-01-27T03:09:12;98537.56;;;0.36;89.09
55604;BME280;41468;48.838;9.330;2023-01-27T03:11:39;98545.53;;;0.41;89.39
55604;BME280;41468;48.838;9.330;2023-01-27T03:14:24;98538.66;;;0.35;88.80
55604;BME280;41468;48.838;9.330;2023-01-27T03:17:09;98541.81;;;0.37;89.75
55604;BME280;41468;48.838;9.330;2023-01-27T03:19:54;98547.06;;;0.29;90.04
55604;BME280;41468;48.838;9.330;2023-01-27T03:22:21;98562.00;;;0.35;89.84
55604;BME280;41468;48.838;9.330;2023-01-27T03:24:47;98568.59;;;0.42;89.81
55604;BME280;41468;48.838;9.330;2023-01-27T03:27:14;98561.75;;;0.50;89.45
55604;BME280;41468;48.838;9.330;2023-01-27T03:29:41;98559.38;;;0.49;89.15
55604;BME280;41468;48.838;9.330;2023-01-27T03:32:24;98559.94;;;0.46;89.31
55604;BME280;41468;48.838;9.330;2023-01-27T03:34:51;98567.69;;;0.33;90.15
55604;BME280;41468;48.838;9.330;2023-01-27T03:37:18;98556.16;;;0.33;91.02
55604;BME280;41468;48.838;9.330;2023-01-27T03:40:04;98559.56;;;0.38;90.27
55604;BME280;41468;48.838;9.330;2023-01-27T03:42:51;98551.56;;;0.33;90.10
55604;BME280;41468;48.838;9.330;2023-01-27T03:45:37;98552.13;;;0.49;90.13
55604;BME280;41468;48.838;9.330;2023-01-27T03:48:22;98553.69;;;0.50;90.23
55604;BME280;41468;48.838;9.330;2023-01-27T03:50:49;98552.31;;;0.53;90.09
55604;BME280;41468;48.838;9.330;2023-01-27T03:53:19;98557.78;;;0.48;90.21
55604;BME280;41468;48.838;9.330;2023-01-27T03:55:46;98560.28;;;0.58;89.93
55604;BME280;41468;48.838;9.330;2023-01-27T03:58:17;98560.00;;;0.59;89.02
55604;BME280;41468;48.838;9.330;2023-01-27T04:00:56;98561.94;;;0.54;89.74
55604;BME280;41468;48.838;9.330;2023-01-27T04:03:24;98557.72;;;0.34;90.05
55604;BME280;41468;48.838;9.330;2023-01-27T04:06:13;98555.97;;;0.43;90.47
55604;BME280;41468;48.838;9.330;2023-01-27T04:08:59;98556.00;;;0.57;89.77
55604;BME280;41468;48.838;9.330;2023-01-27T04:11:26;98551.81;;;0.51;90.16
55604;BME280;41468;48.838;9.330;2023-01-27T04:14:11;98552.81;;;0.55;89.74
55604;BME280;41468;48.838;9.330;2023-01-27T04:16:38;98558.91;;;0.60;89.36
55604;BME280;41468;48.838;9.330;2023-01-27T04:19:07;98573.22;;;0.56;89.11
55604;BME280;41468;48.838;9.330;2023-01-27T04:21:34;98571.13;;;0.53;89.70
55604;BME280;41468;48.838;9.330;2023-01-27T04:24:01;98567.31;;;0.54;89.69
55604;BME280;41468;48.838;9.330;2023-01-27T04:26:29;98577.75;;;0.41;90.42
55604;BME280;41468;48.838;9.330;2023-01-27T04:29:01;98569.78;;;0.36;90.66
55604;BME280;41468;48.838;9.330;2023-01-27T04:31:29;98573.06;;;0.33;89.97
55604;BME280;41468;48.838;9.330;2023-01-27T04:33:55;98568.69;;;0.37;89.69
55604;BME280;41468;48.838;9.330;2023-01-27T04:36:22;98570.47;;;0.28;89.88
55604;BME280;41468;48.838;9.330;2023-01-27T04:38:49;98568.03;;;0.27;89.23
55604;BME280;41468;48.838;9.330;2023-01-27T04:41:15;98574.13;;;0.32;89.67
55604;BME280;41468;48.838;9.330;2023-01-27T04:43:42;98568.69;;;0.37;89.04
55604;BME280;41468;48.838;9.330;2023-01-27T04:46:09;98559.72;;;0.28;89.09
55604;BME280;41468;48.838;9.330;2023-01-27T04:48:35;98554.19;;;0.38;89.18
55604;BME280;41468;48.838;9.330;2023-01-27T04:51:02;98563.03;;;0.39;89.17
55604;BME280;41468;48.838;9.330;2023-01-27T04:53:29;98572.81;;;0.49;89.34
55604;BME280;41468;48.838;9.330;2023-01-27T04:56:04;98559.75;;;0.42;89.23
55604;BME280;41468;48.838;9.330;2023-01-27T04:58:31;98568.31;;;0.44;89.79
55604;BME280;41468;48.838;9.330;2023-01-27T05:00:58;98574.47;;;0.44;89.41
55604;BME280;41468;48.838;9.330;2023-01-27T05:03:25;98579.22;;;0.34;90.17
55604;BME280;41468;48.838;9.330;2023-01-27T05:05:51;98580.72;;;0.40;90.07
55604;BME280;41468;48.838;9.330;2023-01-27T05:08:18;98572.53;;;0.31;90.01
55604;BME280;41468;48.838;9.330;2023-01-27T05:10:44;98570.56;;;0.37;89.77
55604;BME280;41468;48.838;9.330;2023-01-27T05:13:11;98582.81;;;0.43;89.39
55604;BME280;41468;48.838;9.330;2023-01-27T05:15:37;98582.03;;;0.42;88.96
55604;BME280;41468;48.838;9.330;2023-01-27T05:18:04;98582.41;;;0.36;89.29
55604;BME280;41468;48.838;9.330;2023-01-27T05:20:31;98583.81;;;0.33;88.98
55604;BME280;41468;48.838;9.330;2023-01-27T05:22:58;98584.22;;;0.40;89.25
55604;BME280;41468;48.838;9.330;2023-01-27T05:25:44;98588.47;;;0.28;89.63
55604;BME280;41468;48.838;9.330;2023-01-27T05:28:11;98584.09;;;0.32;89.82
55604;BME280;41468;48.838;9.330;2023-01-27T05:30:38;98580.53;;;0.36;89.71
55604;BME280;41468;48.838;9.330;2023-01-27T05:33:05;98584.59;;;0.34;89.89
55604;BME280;41468;48.838;9.330;2023-01-27T05:35:33;98587.00;;;0.35;90.24
55604;BME280;41468;48.838;9.330;2023-01-27T05:38:00;98597.44;;;0.37;90.05
55604;BME280;41468;48.838;9.330;2023-01-27T05:40:27;98591.47;;;0.40;89.93
55604;BME280;41468;48.838;9.330;2023-01-27T05:42:54;98595.13;;;0.30;90.24
55604;BME280;41468;48.838;9.330;2023-01-27T05:45:20;98595.63;;;0.32;90.65
55604;BME280;41468;48.838;9.330;2023-01-27T05:47:50;98594.63;;;0.28;90.04
55604;BME280;41468;48.838;9.330;2023-01-27T05:50:17;98602.09;;;0.31;90.75
55604;BME280;41468;48.838;9.330;2023-01-27T05:52:44;98595.97;;;0.44;89.74
55604;BME280;41468;48.838;9.330;2023-01-27T05:55:11;98597.44;;;0.37;89.21
55604;BME280;41468;48.838;9.330;2023-01-27T05:57:38;98595.53;;;0.37;88.89
55604;BME280;41468;48.838;9.330;2023-01-27T06:00:05;98596.94;;;0.35;89.14
55604;BME280;41468;48.838;9.330;2023-01-27T06:02:32;98596.94;;;0.35;89.21
55604;BME280;41468;48.838;9.330;2023-01-27T06:04:58;98596.38;;;0.38;89.34
55604;BME280;41468;48.838;9.330;2023-01-27T06:07:25;98598.22;;;0.37;88.92
55604;BME280;41468;48.838;9.330;2023-01-27T06:10:03;98596.13;;;0.34;89.08
55604;BME280;41468;48.838;9.330;2023-01-27T06:12:30;98592.66;;;0.34;89.48
55604;BME280;41468;48.838;9.330;2023-01-27T06:14:57;98594.53;;;0.33;89.48
55604;BME280;41468;48.838;9.330;2023-01-27T06:17:25;98599.59;;;0.35;89.25
55604;BME280;41468;48.838;9.330;2023-01-27T06:19:52;98600.50;;;0.30;89.61
55604;BME280;41468;48.838;9.330;2023-01-27T06:22:18;98597.31;;;0.28;89.86
55604;BME280;41468;48.838;9.330;2023-01-27T06:24:45;98608.56;;;0.30;89.46
55604;BME280;41468;48.838;9.330;2023-01-27T06:27:11;98595.72;;;0.27;89.72
55604;BME280;41468;48.838;9.330;2023-01-27T06:29:38;98601.84;;;0.47;89.21
55604;BME280;41468;48.838;9.330;2023-01-27T06:32:05;98605.41;;;0.42;88.83
55604;BME280;41468;48.838;9.330;2023-01-27T06:34:31;98601.94;;;0.41;88.82
55604;BME280;41468;48.838;9.330;2023-01-27T06:36:58;98597.50;;;0.32;89.42
55604;BME280;41468;48.838;9.330;2023-01-27T06:39:24;98607.47;;;0.31;89.88
55604;BME280;41468;48.838;9.330;2023-01-27T06:41:51;98612.84;;;0.31;89.37
55604;BME280;41468;48.838;9.330;2023-01-27T06:44:18;98619.59;;;0.29;89.59
55604;BME280;41468;48.838;9.330;2023-01-27T06:46:44;98623.63;;;0.45;88.99
55604;BME280;41468;48.838;9.330;2023-01-27T06:49:11;98618.41;;;0.35;89.33
55604;BME280;41468;48.838;9.330;2023-01-27T06:51:38;98627.94;;;0.93;87.73
55604;BME280;41468;48.838;9.330;2023-01-27T06:54:05;98636.31;;;0.91;86.86
55604;BME280;41468;48.838;9.330;2023-01-27T06:56:31;98640.19;;;0.85;86.22
55604;BME280;41468;48.838;9.330;2023-01-27T06:59:03;98641.25;;;0.70;86.80
55604;BME280;41468;48.838;9.330;2023-01-27T07:01:29;98656.56;;;0.70;86.16
55604;BME280;41468;48.838;9.330;2023-01-27T07:03:56;98649.75;;;0.58;86.38
55604;BME280;41468;48.838;9.330;2023-01-27T07:06:23;98656.31;;;0.52;86.88
55604;BME280;41468;48.838;9.330;2023-01-27T07:08:49;98660.88;;;0.52;86.64
55604;BME280;41468;48.838;9.330;2023-01-27T07:11:18;98662.47;;;0.53;85.99
55604;BME280;41468;48.838;9.330;2023-01-27T07:13:44;98662.69;;;0.56;86.77
55604;BME280;41468;48.838;9.330;2023-01-27T07:16:11;98667.25;;;0.56;86.00
55604;BME280;41468;48.838;9.330;2023-01-27T07:18:38;98656.59;;;0.51;86.88
55604;BME280;41468;48.838;9.330;2023-01-27T07:21:05;98659.28;;;0.51;86.62
55604;BME280;41468;48.838;9.330;2023-01-27T07:23:31;98660.88;;;0.52;85.18
55604;BME280;41468;48.838;9.330;2023-01-27T07:26:00;98672.03;;;0.59;85.66
55604;BME280;41468;48.838;9.330;2023-01-27T07:28:31;98678.00;;;0.56;85.50
55604;BME280;41468;48.838;9.330;2023-01-27T07:31:01;98672.34;;;0.57;84.45
55604;BME280;41468;48.838;9.330;2023-01-27T07:33:28;98678.59;;;0.53;83.77
55604;BME280;41468;48.838;9.330;2023-01-27T07:35:54;98684.63;;;0.26;84.60
55604;BME280;41468;48.838;9.330;2023-01-27T07:38:21;98688.84;;;0.32;85.34
55604;BME280;41468;48.838;9.330;2023-01-27T07:40:48;98690.16;;;0.34;85.06
55604;BME280;41468;48.838;9.330;2023-01-27T07:43:14;98693.34;;;0.36;85.35
55604;BME280;41468;48.838;9.330;2023-01-27T07:45:41;98697.06;;;0.40;85.08
55604;BME280;41468;48.838;9.330;2023-01-27T07:48:08;98692.31;;;0.32;84.39
55604;BME280;41468;48.838;9.330;2023-01-27T07:50:35;98692.34;;;0.51;85.48
55604;BME280;41468;48.838;9.330;2023-01-27T07:53:03;98687.59;;;0.43;84.00
55604;BME280;41468;48.838;9.330;2023-01-27T07:55:31;98701.28;;;0.47;84.64
55604;BME280;41468;48.838;9.330;2023-01-27T07:57:58;98706.84;;;0.50;85.62
55604;BME280;41468;48.838;9.330;2023-01-27T08:00:25;98702.34;;;0.46;84.66
55604;BME280;41468;48.838;9.330;2023-01-27T08:02:52;98713.47;;;0.39;84.71
55604;BME280;41468;48.838;9.330;2023-01-27T08:05:20;98711.28;;;0.41;83.78
55604;BME280;41468;48.838;9.330;2023-01-27T08:07:49;98709.31;;;0.47;83.82
55604;BME280;41468;48.838;9.330;2023-01-27T08:10:17;98704.47;;;0.49;83.45
55604;BME280;41468;48.838;9.330;2023-01-27T08:12:44;98708.53;;;0.46;83.40
55604;BME280;41468;48.838;9.330;2023-01-27T08:15:11;98715.56;;;0.42;83.73
55604;BME280;41468;48.838;9.330;2023-01-27T08:17:38;98707.94;;;0.30;84.19
55604;BME280;41468;48.838;9.330;2023-01-27T08:20:05;98715.28;;;0.43;84.81
55604;BME280;41468;48.838;9.330;2023-01-27T08:22:32;98725.44;;;0.47;84.21
55604;BME280;41468;48.838;9.330;2023-01-27T08:24:58;98725.31;;;0.57;83.83
55604;BME280;41468;48.838;9.330;2023-01-27T08:27:25;98721.59;;;0.53;83.84
55604;BME280;41468;48.838;9.330;2023-01-27T08:29:52;98721.06;;;0.51;83.19
55604;BME280;41468;48.838;9.330;2023-01-27T08:32:18;98724.94;;;0.44;84.35
55604;BME280;41468;48.838;9.330;2023-01-27T08:34:45;98733.94;;;0.54;83.22
55604;BME280;41468;48.838;9.330;2023-01-27T08:37:11;98723.03;;;0.45;84.04
55604;BME280;41468;48.838;9.330;2023-01-27T08:39:38;98724.06;;;0.68;84.74
55604;BME280;41468;48.838;9.330;2023-01-27T08:42:05;98728.34;;;0.69;83.07
55604;BME280;41468;48.838;9.330;2023-01-27T08:44:31;98727.34;;;0.65;82.97
55604;BME280;41468;48.838;9.330;2023-01-27T08:46:58;98731.09;;;0.64;83.45
55604;BME280;41468;48.838;9.330;2023-01-27T08:49:24;98744.91;;;0.57;82.92
55604;BME280;41468;48.838;9.330;2023-01-27T08:51:51;98737.50;;;0.68;82.45
55604;BME280;41468;48.838;9.330;2023-01-27T08:54:17;98738.22;;;0.55;83.64
55604;BME280;41468;48.838;9.330;2023-01-27T08:56:44;98739.47;;;0.62;82.87
55604;BME280;41468;48.838;9.330;2023-01-27T08:59:11;98743.47;;;0.65;83.40
55604;BME280;41468;48.838;9.330;2023-01-27T09:01:37;98737.72;;;0.53;83.05
55604;BME280;41468;48.838;9.330;2023-01-27T09:04:04;98742.88;;;0.68;83.62
55604;BME280;41468;48.838;9.330;2023-01-27T09:06:31;98733.00;;;0.63;83.95
55604;BME280;41468;48.838;9.330;2023-01-27T09:08:57;98723.03;;;0.64;83.96
55604;BME280;41468;48.838;9.330;2023-01-27T09:11:40;98738.13;;;0.79;83.65
55604;BME280;41468;48.838;9.330;2023-01-27T09:14:07;98737.34;;;0.78;83.61
55604;BME280;41468;48.838;9.330;2023-01-27T09:16:34;98735.84;;;1.05;83.86
55604;BME280;41468;48.838;9.330;2023-01-27T09:19:01;98748.59;;;0.80;82.90
55604;BME280;41468;48.838;9.330;2023-01-27T09:21:28;98738.19;;;0.93;83.04
55604;BME280;41468;48.838;9.330;2023-01-27T09:23:55;98735.66;;;0.82;82.45
55604;BME280;41468;48.838;9.330;2023-01-27T09:26:22;98730.41;;;0.91;82.83
55604;BME280;41468;48.838;9.330;2023-01-27T09:28:48;98733.91;;;0.92;82.82
55604;BME280;41468;48.838;9.330;2023-01-27T09:31:15;98738.06;;;0.84;83.15
55604;BME280;41468;48.838;9.330;2023-01-27T09:33:42;98736.97;;;0.85;83.11
55604;BME280;41468;48.838;9.330;2023-01-27T09:36:10;98742.09;;;1.00;82.67
55604;BME280;41468;48.838;9.330;2023-01-27T09:38:42;98745.50;;;1.06;82.72
55604;BME280;41468;48.838;9.330;2023-01-27T09:46:44;98739.28;;;0.92;82.30
55604;BME280;41468;48.838;9.330;2023-01-27T09:52:16;98742.47;;;0.94;82.17
55604;BME280;41468;48.838;9.330;2023-01-27T09:55:17;98751.03;;;0.96;83.06
55604;BME280;41468;48.838;9.330;2023-01-27T09:58:00;98736.13;;;1.03;82.66
55604;BME280;41468;48.838;9.330;2023-01-27T10:11:43;98740.78;;;1.30;79.90
55604;BME280;41468;48.838;9.330;2023-01-27T10:17:18;98746.84;;;1.22;81.03
55604;BME280;41468;48.838;9.330;2023-01-27T10:23:08;98738.66;;;1.14;80.89
55604;BME280;41468;48.838;9.330;2023-01-27T10:25:50;98741.88;;;1.16;80.31
55604;BME280;41468;48.838;9.330;2023-01-27T10:28:22;98736.59;;;1.24;80.90
55604;BME280;41468;48.838;9.330;2023-01-27T10:31:08;98743.66;;;1.20;80.63
55604;BME280;41468;48.838;9.330;2023-01-27T10:33:42;98746.59;;;1.38;80.00
55604;BME280;41468;48.838;9.330;2023-01-27T10:36:24;98744.97;;;1.37;79.84
55604;BME280;41468;48.838;9.330;2023-01-27T10:46:53;98756.84;;;1.36;77.79
55604;BME280;41468;48.838;9.330;2023-01-27T10:50:32;98750.84;;;1.25;77.26
55604;BME280;41468;48.838;9.330;2023-01-27T10:52:44;98755.34;;;1.29;78.65
55604;BME280;41468;48.838;9.330;2023-01-27T10:55:17;98754.53;;;1.29;78.47
55604;BME280;41468;48.838;9.330;2023-01-27T10:57:52;98740.00;;;1.30;79.37
55604;BME280;41468;48.838;9.330;2023-01-27T11:00:37;98753.97;;;1.32;77.94
55604;BME280;41468;48.838;9.330;2023-01-27T11:03:30;98756.50;;;1.23;76.15
55604;BME280;41468;48.838;9.330;2023-01-27T11:06:05;98746.75;;;1.27;79.07
55604;BME280;41468;48.838;9.330;2023-01-27T11:08:35;98749.66;;;1.31;79.38
55604;BME280;41468;48.838;9.330;2023-01-27T11:11:06;98749.97;;;1.29;78.71
55604;BME280;41468;48.838;9.330;2023-01-27T11:13:59;98742.25;;;1.23;78.94
55604;BME280;41468;48.838;9.330;2023-01-27T11:16:35;98743.38;;;1.36;77.81
55604;BME280;41468;48.838;9.330;2023-01-27T11:19:24;98747.19;;;1.35;78.52
55604;BME280;41468;48.838;9.330;2023-01-27T11:21:54;98746.97;;;1.45;78.10
55604;BME280;41468;48.838;9.330;2023-01-27T11:24:57;98747.56;;;1.42;77.94
55604;BME280;41468;48.838;9.330;2023-01-27T11:27:51;98736.03;;;1.55;78.62
55604;BME280;41468;48.838;9.330;2023-01-27T11:30:25;98734.44;;;1.54;78.60
55604;BME280;41468;48.838;9.330;2023-01-27T11:35:29;98730.16;;;1.53;78.74
55604;BME280;41468;48.838;9.330;2023-01-27T11:37:56;98738.03;;;1.49;78.53
55604;BME280;41468;48.838;9.330;2023-01-27T11:40:40;98745.13;;;1.59;77.46
55604;BME280;41468;48.838;9.330;2023-01-27T11:43:14;98734.53;;;1.49;78.61
55604;BME280;41468;48.838;9.330;2023-01-27T11:45:42;98738.34;;;1.48;79.04
55604;BME280;41468;48.838;9.330;2023-01-27T11:48:12;98738.22;;;1.53;78.24
55604;BME280;41468;48.838;9.330;2023-01-27T11:50:41;98732.44;;;1.46;78.76
55604;BME280;41468;48.838;9.330;2023-01-27T11:55:41;98723.06;;;1.43;79.48
55604;BME280;41468;48.838;9.330;2023-01-27T11:58:15;98726.75;;;1.47;80.04
55604;BME280;41468;48.838;9.330;2023-01-27T12:00:48;98722.28;;;1.43;78.88
55604;BME280;41468;48.838;9.330;2023-01-27T12:09:34;98712.09;;;1.40;79.13
55604;BME280;41468;48.838;9.330;2023-01-27T12:14:58;98711.59;;;1.38;81.64
55604;BME280;41468;48.838;9.330;2023-01-27T12:17:56;98710.31;;;1.49;81.57
55604;BME280;41468;48.838;9.330;2023-01-27T12:22:51;98708.59;;;1.39;80.69
55604;BME280;41468;48.838;9.330;2023-01-27T12:25:23;98711.69;;;1.32;79.22
55604;BME280;41468;48.838;9.330;2023-01-27T12:27:53;98703.03;;;1.36;80.00
55604;BME280;41468;48.838;9.330;2023-01-27T12:30:22;98698.16;;;1.38;80.03
55604;BME280;41468;48.838;9.330;2023-01-27T12:32:50;98698.63;;;1.40;81.25
55604;BME280;41468;48.838;9.330;2023-01-27T12:35:27;98700.94;;;1.46;80.46
55604;BME280;41468;48.838;9.330;2023-01-27T12:38:03;98698.34;;;1.41;80.55
55604;BME280;41468;48.838;9.330;2023-01-27T12:40:31;98701.75;;;1.47;81.07
55604;BME280;41468;48.838;9.330;2023-01-27T12:43:18;98703.53;;;1.51;81.38
55604;BME280;41468;48.838;9.330;2023-01-27T12:48:45;98700.75;;;1.57;80.47
55604;BME280;41468;48.838;9.330;2023-01-27T12:51:19;98705.22;;;1.47;80.75
55604;BME280;41468;48.838;9.330;2023-01-27T12:53:48;98704.53;;;1.42;81.14
55604;BME280;41468;48.838;9.330;2023-01-27T12:56:20;98696.34;;;1.47;81.51
55604;BME280;41468;48.838;9.330;2023-01-27T12:58:58;98693.47;;;1.57;80.89
55604;BME280;41468;48.838;9.330;2023-01-27T13:01:34;98683.69;;;1.61;81.04
55604;BME280;41468;48.838;9.330;2023-01-27T13:04:13;98697.75;;;1.58;80.85
55604;BME280;41468;48.838;9.330;2023-01-27T13:09:48;98685.72;;;1.83;81.04
55604;BME280;41468;48.838;9.330;2023-01-27T13:12:24;98682.91;;;1.74;80.14
55604;BME280;41468;48.838;9.330;2023-01-27T13:14:55;98685.59;;;1.88;80.25
55604;BME280;41468;48.838;9.330;2023-01-27T13:20:13;98689.28;;;1.79;79.90
55604;BME280;41468;48.838;9.330;2023-01-27T13:22:51;98695.38;;;1.70;80.72
55604;BME280;41468;48.838;9.330;2023-01-27T13:25:22;98695.97;;;1.53;80.79
55604;BME280;41468;48.838;9.330;2023-01-27T13:27:53;98696.97;;;1.71;81.08
55604;BME280;41468;48.838;9.330;2023-01-27T13:30:26;98705.75;;;1.63;80.57
55604;BME280;41468;48.838;9.330;2023-01-27T13:32:58;98704.25;;;1.57;81.23
55604;BME280;41468;48.838;9.330;2023-01-27T13:35:37;98709.03;;;1.60;81.53
55604;BME280;41468;48.838;9.330;2023-01-27T13:38:16;98709.53;;;1.48;82.22
55604;BME280;41468;48.838;9.330;2023-01-27T13:40:45;98709.53;;;1.62;81.32
55604;BME280;41468;48.838;9.330;2023-01-27T13:43:17;98712.91;;;1.54;82.04
55604;BME280;41468;48.838;9.330;2023-01-27T13:48:28;98718.19;;;1.45;81.24
55604;BME280;41468;48.838;9.330;2023-01-27T13:51:16;98716.09;;;1.42;80.88
55604;BME280;41468;48.838;9.330;2023-01-27T13:53:44;98716.75;;;1.34;82.09
55604;BME280;41468;48.838;9.330;2023-01-27T14:08:39;98738.72;;;1.55;81.85
55604;BME280;41468;48.838;9.330;2023-01-27T14:10:49;98744.19;;;1.50;81.94
55604;BME280;41468;48.838;9.330;2023-01-27T14:16:30;98739.13;;;1.35;82.07
55604;BME280;41468;48.838;9.330;2023-01-27T14:19:33;98739.22;;;1.43;81.10
55604;BME280;41468;48.838;9.330;2023-01-27T14:24:51;98735.13;;;1.46;81.60
55604;BME280;41468;48.838;9.330;2023-01-27T14:30:15;98738.72;;;1.41;81.73
55604;BME280;41468;48.838;9.330;2023-01-27T14:32:53;98746.69;;;1.46;80.92
55604;BME280;41468;48.838;9.330;2023-01-27T14:35:55;98752.56;;;1.35;81.40
55604;BME280;41468;48.838;9.330;2023-01-27T14:38:42;98746.16;;;1.30;81.52
55604;BME280;41468;48.838;9.330;2023-01-27T14:41:29;98744.34;;;1.26;80.43
55604;BME280;41468;48.838;9.330;2023-01-27T14:44:12;98745.81;;;1.18;81.61
55604;BME280;41468;48.838;9.330;2023-01-27T14:46:53;98752.66;;;1.29;81.79
55604;BME280;41468;48.838;9.330;2023-01-27T14:49:36;98752.84;;;1.33;80.76
55604;BME280;41468;48.838;9.330;2023-01-27T14:52:17;98749.03;;;1.20;80.76
55604;BME280;41468;48.838;9.330;2023-01-27T14:58:14;98746.84;;;1.22;79.71
55604;BME280;41468;48.838;9.330;2023-01-27T15:03:44;98745.81;;;1.51;79.80